Time;durP1;ratioP1;P1;durP2;ratioP2;P2;SDS_P1;SDS_P2;PMS_P1;PMS_P2;Temp;Humidity;BMP_temperature;BMP_pressure;BME280_temperature;BME280_humidity;BME280_pressure;Samples;Min_cycle;Max_cycle;Signal;HPM_P1;HPM_P2
2021/06/24 00:01:34;;;;;;;4.28;3.60;;;18.30;99.90;;;;;;5019167;28;20539;-81
2021/06/24 00:04:01;;;;;;;4.55;3.30;;;18.50;99.90;;;;;;5018222;28;20496;-81
2021/06/24 00:06:26;;;;;;;6.88;3.83;;;18.50;99.90;;;;;;5016172;28;20026;-81
2021/06/24 00:08:53;;;;;;;6.90;3.25;;;18.40;99.90;;;;;;5034131;28;20026;-80
2021/06/24 00:11:18;;;;;;;4.57;3.17;;;18.40;99.90;;;;;;5033229;28;20105;-81
2021/06/24 00:13:44;;;;;;;5.57;3.72;;;18.30;99.90;;;;;;5032901;28;20064;-81
2021/06/24 00:16:10;;;;;;;5.53;3.15;;;18.40;99.90;;;;;;5033606;28;20385;-81
2021/06/24 00:18:36;;;;;;;7.18;3.63;;;18.40;99.90;;;;;;5015664;28;20104;-81
2021/06/24 00:21:05;;;;;;;5.05;3.60;;;18.50;99.90;;;;;;5015745;28;20505;-81
2021/06/24 00:23:30;;;;;;;4.00;3.33;;;18.30;99.90;;;;;;5034228;28;20021;-81
2021/06/24 00:25:56;;;;;;;6.70;3.60;;;18.40;99.90;;;;;;5036014;28;20037;-80
2021/06/24 00:28:26;;;;;;;6.22;3.35;;;18.10;99.90;;;;;;5017305;28;20033;-81
2021/06/24 00:30:52;;;;;;;6.82;3.13;;;18.10;99.90;;;;;;5017949;28;20032;-82
2021/06/24 00:33:18;;;;;;;3.80;3.28;;;18.00;99.90;;;;;;5039731;28;20033;-81
2021/06/24 00:35:44;;;;;;;6.03;3.35;;;17.80;99.90;;;;;;5040457;28;20047;-81
2021/06/24 00:38:10;;;;;;;5.80;3.78;;;18.00;99.90;;;;;;5062101;28;20063;-82
2021/06/24 00:40:37;;;;;;;5.90;3.78;;;18.20;99.90;;;;;;5060465;28;20412;-82
2021/06/24 00:43:08;;;;;;;5.13;3.42;;;18.30;99.90;;;;;;5059832;28;20025;-82
2021/06/24 00:45:35;;;;;;;5.00;3.42;;;18.30;99.90;;;;;;5063863;28;20021;-82
2021/06/24 00:48:01;;;;;;;5.35;3.25;;;18.40;99.90;;;;;;5062681;28;20025;-82
2021/06/24 00:50:27;;;;;;;6.00;2.17;;;18.30;99.90;;;;;;5067729;28;20028;-81
2021/06/24 00:52:53;;;;;;;3.05;2.25;;;18.20;99.90;;;;;;5068019;28;20035;-81
2021/06/24 00:55:39;;;;;;;2.83;2.38;;;18.00;99.90;;;;;;5065065;28;20096;-81
2021/06/24 00:58:05;;;;;;;3.33;2.67;;;17.80;99.90;;;;;;5066891;28;20476;-81
2021/06/24 01:00:31;;;;;;;3.45;2.22;;;18.00;99.90;;;;;;5066255;28;20484;-81
2021/06/24 01:02:56;;;;;;;3.70;2.25;;;17.90;99.90;;;;;;5068849;28;20044;-81
2021/06/24 01:05:22;;;;;;;4.25;2.00;;;18.10;99.90;;;;;;5067563;28;20035;-81
2021/06/24 01:07:48;;;;;;;5.18;2.38;;;17.90;99.90;;;;;;5065381;28;20021;-81
2021/06/24 01:10:14;;;;;;;4.47;1.77;;;17.90;99.90;;;;;;5066782;28;20057;-81
2021/06/24 01:12:40;;;;;;;4.35;2.88;;;17.80;99.90;;;;;;5067994;28;20029;-81
2021/06/24 01:15:06;;;;;;;2.97;1.70;;;17.90;99.90;;;;;;5070054;28;20036;-81
2021/06/24 01:17:32;;;;;;;3.53;2.67;;;17.90;99.90;;;;;;5068965;28;20025;-80
2021/06/24 01:19:58;;;;;;;2.50;1.77;;;17.80;99.90;;;;;;5064542;28;20430;-81
2021/06/24 01:22:23;;;;;;;3.38;1.90;;;17.60;99.90;;;;;;5065923;28;20025;-81
2021/06/24 01:24:49;;;;;;;5.80;2.13;;;17.60;99.90;;;;;;5065894;28;20017;-81
2021/06/24 01:27:15;;;;;;;4.95;2.28;;;17.50;99.90;;;;;;5068208;28;20029;-81
2021/06/24 01:29:40;;;;;;;4.13;2.38;;;17.80;99.90;;;;;;5067142;28;20380;-81
2021/06/24 01:32:06;;;;;;;2.03;1.80;;;17.90;99.90;;;;;;5062896;28;20116;-81
2021/06/24 01:34:33;;;;;;;2.67;2.20;;;18.00;99.90;;;;;;5056679;28;20029;-81
2021/06/24 01:37:00;;;;;;;3.10;2.03;;;18.00;99.90;;;;;;5021040;28;20049;-81
2021/06/24 01:39:26;;;;;;;4.03;1.80;;;18.00;99.90;;;;;;5019536;28;20033;-81
2021/06/24 01:41:59;;;;;;;3.42;2.03;;;18.10;99.90;;;;;;5035411;28;20017;-81
2021/06/24 01:44:35;;;;;;;4.25;2.15;;;17.90;99.90;;;;;;5035139;28;20024;-81
2021/06/24 01:47:02;;;;;;;3.60;1.83;;;17.90;99.90;;;;;;5017383;28;20033;-81
2021/06/24 01:49:29;;;;;;;3.88;2.10;;;18.00;99.90;;;;;;5017238;28;20029;-81
2021/06/24 01:51:56;;;;;;;3.67;1.98;;;17.90;99.90;;;;;;5017257;28;20068;-81
2021/06/24 01:54:22;;;;;;;3.05;1.92;;;18.00;99.90;;;;;;5017237;28;20021;-81
2021/06/24 01:56:49;;;;;;;2.53;2.00;;;18.00;99.90;;;;;;5017135;28;20448;-81
2021/06/24 01:59:15;;;;;;;3.50;2.13;;;17.90;99.90;;;;;;5034851;28;20028;-81
2021/06/24 02:01:41;;;;;;;4.80;2.30;;;17.90;99.90;;;;;;5017085;28;20112;-81
2021/06/24 02:04:08;;;;;;;4.80;2.25;;;17.90;99.90;;;;;;5016981;28;20477;-81
2021/06/24 02:06:33;;;;;;;5.35;2.50;;;17.80;99.90;;;;;;5034900;28;20400;-81
2021/06/24 02:08:59;;;;;;;3.22;2.47;;;17.80;99.90;;;;;;5017349;28;20029;-81
2021/06/24 02:11:25;;;;;;;2.97;2.35;;;17.80;99.90;;;;;;5017331;28;20477;-81
2021/06/24 02:13:51;;;;;;;3.58;2.00;;;17.80;99.90;;;;;;5017317;28;20115;-81
2021/06/24 02:16:17;;;;;;;3.47;2.42;;;17.80;99.90;;;;;;5017678;28;20136;-81
2021/06/24 02:18:42;;;;;;;4.28;2.08;;;17.80;99.90;;;;;;5017391;28;20500;-81
2021/06/24 02:21:08;;;;;;;2.60;2.40;;;17.80;99.90;;;;;;5017686;28;20531;-81
2021/06/24 02:23:34;;;;;;;4.25;2.15;;;17.80;99.90;;;;;;5017294;28;20108;-81
2021/06/24 02:26:00;;;;;;;3.17;2.00;;;17.80;99.90;;;;;;5017144;28;20060;-81
2021/06/24 02:28:26;;;;;;;3.70;2.40;;;17.90;99.90;;;;;;5017224;28;20477;-81
2021/06/24 02:30:52;;;;;;;4.35;2.28;;;18.00;99.90;;;;;;5035470;28;20022;-81
2021/06/24 02:33:18;;;;;;;4.32;2.20;;;18.00;99.90;;;;;;5018102;28;20033;-81
2021/06/24 02:35:54;;;;;;;3.90;2.00;;;18.10;99.90;;;;;;5036571;28;20492;-81
2021/06/24 02:38:20;;;;;;;4.22;1.95;;;18.10;99.90;;;;;;5055903;28;20499;-81
2021/06/24 02:40:46;;;;;;;6.40;2.00;;;18.10;99.90;;;;;;5056077;28;20055;-81
2021/06/24 02:43:11;;;;;;;3.17;1.80;;;18.20;99.90;;;;;;5055750;28;20017;-82
2021/06/24 02:45:39;;;;;;;2.92;1.90;;;18.20;99.90;;;;;;5057712;28;20511;-81
2021/06/24 02:48:06;;;;;;;5.13;1.90;;;18.10;99.90;;;;;;5057873;28;20043;-81
2021/06/24 02:50:31;;;;;;;3.17;1.90;;;17.90;99.90;;;;;;5057756;28;20033;-81
2021/06/24 02:52:57;;;;;;;4.45;1.90;;;17.90;99.90;;;;;;5054809;28;20135;-81
2021/06/24 02:55:23;;;;;;;7.35;2.10;;;17.90;99.90;;;;;;5053786;28;20075;-81
2021/06/24 02:57:56;;;;;;;2.95;2.00;;;17.90;99.90;;;;;;5055102;28;20021;-81
2021/06/24 03:00:22;;;;;;;3.92;1.95;;;17.80;99.90;;;;;;5055011;28;20021;-81
2021/06/24 03:02:48;;;;;;;2.13;1.70;;;17.90;99.90;;;;;;5056423;28;20120;-81
2021/06/24 03:05:15;;;;;;;4.57;1.95;;;18.00;99.90;;;;;;5055382;28;20064;-81
2021/06/24 03:07:40;;;;;;;3.03;1.80;;;18.20;99.90;;;;;;5057381;28;20021;-81
2021/06/24 03:10:08;;;;;;;2.03;1.60;;;18.10;99.90;;;;;;5058670;28;20060;-81
2021/06/24 03:12:34;;;;;;;6.68;1.80;;;18.10;99.90;;;;;;5061850;28;20120;-81
2021/06/24 03:14:59;;;;;;;5.00;1.98;;;18.20;99.90;;;;;;5061367;28;20033;-81
2021/06/24 03:17:25;;;;;;;4.50;1.90;;;18.00;99.90;;;;;;5063636;28;20017;-81
2021/06/24 03:19:51;;;;;;;6.35;1.80;;;18.10;99.90;;;;;;5060706;28;20025;-81
2021/06/24 03:22:16;;;;;;;3.30;1.55;;;18.20;99.90;;;;;;5060800;28;20021;-81
2021/06/24 03:24:42;;;;;;;3.50;1.73;;;18.30;99.90;;;;;;5058784;28;20024;-81
2021/06/24 03:27:08;;;;;;;3.22;2.20;;;18.20;99.90;;;;;;5056575;28;20412;-81
2021/06/24 03:29:34;;;;;;;2.90;1.83;;;18.20;99.90;;;;;;5058040;28;20510;-81
2021/06/24 03:31:59;;;;;;;1.60;1.25;;;18.30;99.90;;;;;;5060304;28;20033;-81
2021/06/24 03:34:25;;;;;;;3.95;1.40;;;18.30;99.90;;;;;;5057991;28;20024;-81
2021/06/24 03:36:51;;;;;;;3.83;1.60;;;18.30;99.90;;;;;;5039946;28;20025;-81
2021/06/24 03:39:16;;;;;;;6.35;1.30;;;18.20;99.90;;;;;;5028547;28;20021;-81
2021/06/24 03:41:42;;;;;;;4.47;1.50;;;18.20;99.90;;;;;;5029934;28;20022;-81
2021/06/24 03:44:08;;;;;;;3.00;1.30;;;18.20;99.90;;;;;;5027961;28;20555;-81
2021/06/24 03:46:33;;;;;;;3.22;1.50;;;18.10;99.90;;;;;;5027788;28;20105;-81
2021/06/24 03:48:59;;;;;;;7.35;1.35;;;18.20;99.90;;;;;;5045244;28;20473;-81
2021/06/24 03:51:25;;;;;;;3.75;1.55;;;18.30;99.90;;;;;;5028735;28;20061;-81
2021/06/24 03:53:51;;;;;;;5.10;1.63;;;18.20;99.90;;;;;;5026255;28;20029;-81
2021/06/24 03:56:17;;;;;;;2.28;1.35;;;18.30;99.90;;;;;;5028667;28;20030;-81
2021/06/24 03:58:43;;;;;;;5.13;1.50;;;18.20;99.90;;;;;;5027270;28;20032;-81
2021/06/24 04:01:08;;;;;;;3.55;1.48;;;18.30;99.90;;;;;;5043430;28;20025;-81
2021/06/24 04:03:34;;;;;;;2.63;1.27;;;18.30;99.90;;;;;;5026618;28;20431;-81
2021/06/24 04:06:00;;;;;;;2.15;1.50;;;18.40;99.90;;;;;;5025917;28;20055;-81
2021/06/24 04:08:26;;;;;;;2.35;1.40;;;18.40;99.90;;;;;;5026262;28;20037;-81
2021/06/24 04:10:51;;;;;;;4.05;1.50;;;18.50;99.90;;;;;;5043032;28;20010;-81
2021/06/24 04:13:17;;;;;;;3.17;1.60;;;18.50;99.90;;;;;;5023974;28;20025;-81
2021/06/24 04:15:43;;;;;;;4.75;1.52;;;18.50;99.90;;;;;;5024543;28;20435;-81
2021/06/24 04:18:09;;;;;;;3.67;1.50;;;18.30;99.90;;;;;;5024325;28;20029;-81
2021/06/24 04:20:35;;;;;;;7.75;1.73;;;18.20;99.90;;;;;;5025422;28;20082;-81
2021/06/24 04:23:02;;;;;;;2.10;1.40;;;18.00;99.90;;;;;;5027031;28;20592;-81
2021/06/24 04:25:28;;;;;;;3.78;1.23;;;18.10;99.90;;;;;;5026519;28;20481;-81
2021/06/24 04:27:55;;;;;;;5.28;1.38;;;18.20;99.90;;;;;;5026692;28;20040;-81
2021/06/24 04:30:22;;;;;;;5.38;1.40;;;18.20;99.90;;;;;;5028058;28;20026;-81
2021/06/24 04:32:49;;;;;;;6.78;1.70;;;18.40;99.90;;;;;;5050721;28;20034;-81
2021/06/24 04:35:15;;;;;;;3.47;1.60;;;18.30;99.90;;;;;;5039667;28;20052;-81
2021/06/24 04:37:41;;;;;;;12.85;7.30;;;18.20;99.90;;;;;;5050048;28;20408;-81
2021/06/24 04:40:09;;;;;;;84.28;65.50;;;18.10;99.90;;;;;;5074159;28;20099;-81
2021/06/24 04:42:35;;;;;;;19.25;15.52;;;18.00;99.90;;;;;;5071874;28;20056;-81
2021/06/24 04:45:02;;;;;;;5.22;3.85;;;17.90;99.90;;;;;;5068647;28;20021;-81
2021/06/24 04:47:28;;;;;;;4.35;3.13;;;18.00;99.90;;;;;;5065082;28;20025;-81
2021/06/24 04:49:53;;;;;;;5.97;2.75;;;17.90;99.90;;;;;;5067755;28;20056;-81
2021/06/24 04:52:19;;;;;;;4.82;2.40;;;17.90;99.90;;;;;;5071717;28;20029;-81
2021/06/24 04:54:45;;;;;;;2.40;2.20;;;18.00;99.90;;;;;;5071257;28;20515;-81
2021/06/24 04:57:12;;;;;;;2.55;2.05;;;18.00;99.90;;;;;;5074377;28;20032;-81
2021/06/24 04:59:37;;;;;;;2.95;1.90;;;18.00;99.90;;;;;;5076853;28;20108;-81
2021/06/24 05:02:03;;;;;;;4.65;2.53;;;17.90;99.90;;;;;;5077993;28;20036;-81
2021/06/24 05:04:29;;;;;;;11.50;2.40;;;18.00;99.90;;;;;;5077287;28;20017;-82
2021/06/24 05:06:59;;;;;;;6.82;2.20;;;18.10;99.90;;;;;;5071488;28;20044;-81
2021/06/24 05:09:27;;;;;;;4.93;1.92;;;18.10;99.90;;;;;;5070450;28;20029;-81
2021/06/24 05:11:53;;;;;;;7.90;2.35;;;18.30;99.90;;;;;;5073078;28;20025;-81
2021/06/24 05:14:19;;;;;;;4.63;2.22;;;18.40;99.90;;;;;;5074346;28;20009;-81
2021/06/24 05:16:45;;;;;;;2.50;2.22;;;18.70;99.90;;;;;;5074947;28;20029;-81
2021/06/24 05:19:11;;;;;;;4.25;2.25;;;18.80;99.90;;;;;;5075923;28;20025;-81
2021/06/24 05:21:39;;;;;;;2.38;1.80;;;18.70;99.90;;;;;;5072245;28;20081;-81
2021/06/24 05:24:05;;;;;;;4.28;1.98;;;18.70;99.90;;;;;;5073989;28;20025;-81
2021/06/24 05:26:31;;;;;;;5.45;2.45;;;18.90;99.90;;;;;;5069977;28;20032;-81
2021/06/24 05:28:56;;;;;;;4.55;2.40;;;19.00;99.90;;;;;;5067368;28;20025;-81
2021/06/24 05:31:22;;;;;;;4.28;2.35;;;19.00;99.90;;;;;;5071500;28;20032;-81
2021/06/24 05:33:48;;;;;;;3.28;2.35;;;19.10;99.90;;;;;;5073280;28;20099;-81
2021/06/24 05:36:14;;;;;;;3.35;2.47;;;19.10;99.90;;;;;;5072591;28;20108;-81
2021/06/24 05:38:40;;;;;;;7.18;2.70;;;19.00;99.90;;;;;;5074669;28;20032;-81
2021/06/24 05:41:05;;;;;;;3.38;2.40;;;19.10;99.90;;;;;;5074904;28;20468;-81
2021/06/24 05:43:31;;;;;;;4.82;2.40;;;19.10;99.90;;;;;;5073735;28;20021;-81
2021/06/24 05:45:57;;;;;;;2.95;2.10;;;19.30;99.90;;;;;;5072431;28;20013;-81
2021/06/24 05:48:22;;;;;;;3.63;2.50;;;19.60;99.90;;;;;;5072556;28;20116;-81
2021/06/24 05:50:48;;;;;;;3.63;2.60;;;19.30;99.90;;;;;;5068480;28;20088;-81
2021/06/24 05:53:14;;;;;;;3.38;2.50;;;19.10;99.90;;;;;;5067026;28;20509;-81
2021/06/24 05:55:52;;;;;;;3.17;2.55;;;19.00;99.90;;;;;;5064669;28;20029;-81
2021/06/24 05:58:23;;;;;;;5.75;2.65;;;19.10;99.90;;;;;;5064879;28;20057;-81
2021/06/24 06:00:51;;;;;;;3.03;2.35;;;19.40;99.90;;;;;;5063173;28;20476;-81
2021/06/24 06:03:18;;;;;;;4.65;2.67;;;19.40;99.90;;;;;;5066411;28;20021;-81
2021/06/24 06:05:44;;;;;;;7.20;2.42;;;19.30;99.90;;;;;;5067474;28;20025;-81
2021/06/24 06:08:10;;;;;;;3.33;2.00;;;19.30;99.90;;;;;;5071056;28;20021;-81
2021/06/24 06:10:38;;;;;;;4.53;2.20;;;19.30;99.90;;;;;;5073896;28;20028;-81
2021/06/24 06:13:05;;;;;;;4.45;2.35;;;19.30;99.90;;;;;;5073839;28;20028;-81
2021/06/24 06:15:32;;;;;;;4.45;2.35;;;19.20;99.90;;;;;;5072927;28;20056;-81
2021/06/24 06:17:58;;;;;;;3.33;2.30;;;19.40;99.90;;;;;;5064304;28;20091;-81
2021/06/24 06:20:24;;;;;;;5.00;2.03;;;19.60;99.90;;;;;;5065500;28;20009;-81
2021/06/24 06:22:49;;;;;;;3.60;2.53;;;19.50;99.90;;;;;;5064448;28;20029;-82
2021/06/24 06:25:15;;;;;;;3.55;2.30;;;19.50;99.90;;;;;;5066443;28;20055;-81
2021/06/24 06:27:41;;;;;;;4.95;2.38;;;19.60;99.90;;;;;;5062813;28;20029;-81
2021/06/24 06:30:08;;;;;;;2.97;1.88;;;19.70;99.90;;;;;;5064571;28;20025;-81
2021/06/24 06:32:34;;;;;;;3.40;2.00;;;20.00;99.90;;;;;;5066331;28;20033;-81
2021/06/24 06:35:00;;;;;;;2.13;1.73;;;20.00;99.90;;;;;;5063724;28;20060;-82
2021/06/24 06:37:26;;;;;;;2.83;1.90;;;20.10;99.90;;;;;;5063493;28;20021;-82
2021/06/24 06:39:51;;;;;;;3.03;1.95;;;20.10;99.90;;;;;;5068370;28;20021;-81
2021/06/24 06:42:17;;;;;;;2.33;1.90;;;20.00;99.90;;;;;;5063740;28;20055;-81
2021/06/24 06:44:43;;;;;;;2.30;2.10;;;19.90;99.90;;;;;;5064435;28;20023;-81
2021/06/24 06:47:08;;;;;;;3.50;1.90;;;19.90;99.90;;;;;;5065009;28;20056;-81
2021/06/24 06:49:34;;;;;;;2.85;1.88;;;20.00;99.90;;;;;;5068783;28;20033;-81
2021/06/24 06:52:00;;;;;;;2.92;2.00;;;20.20;99.90;;;;;;5068315;28;20036;-81
2021/06/24 06:54:27;;;;;;;3.05;2.42;;;20.10;99.90;;;;;;5057033;28;20024;-81
2021/06/24 06:56:52;;;;;;;3.10;2.17;;;20.20;99.90;;;;;;5055105;28;20480;-81
2021/06/24 06:59:18;;;;;;;3.85;2.25;;;20.30;99.90;;;;;;5055375;28;20021;-81
2021/06/24 07:01:44;;;;;;;2.55;1.80;;;20.50;99.90;;;;;;5055032;28;20380;-81
2021/06/24 07:04:09;;;;;;;3.65;1.90;;;20.30;99.90;;;;;;5055919;28;20021;-81
2021/06/24 07:06:35;;;;;;;3.10;2.30;;;20.30;99.90;;;;;;5056226;28;20435;-81
2021/06/24 07:09:01;;;;;;;2.42;1.90;;;20.30;99.90;;;;;;5054136;28;20068;-81
2021/06/24 07:11:27;;;;;;;2.38;2.08;;;20.20;99.90;;;;;;5054369;28;20070;-81
2021/06/24 07:13:53;;;;;;;2.63;2.28;;;20.30;99.90;;;;;;5059309;28;20029;-81
2021/06/24 07:16:19;;;;;;;3.50;2.10;;;20.40;99.90;;;;;;5057174;28;20032;-81
2021/06/24 07:18:47;;;;;;;3.28;1.83;;;20.50;99.90;;;;;;5056478;28;20021;-81
2021/06/24 07:21:12;;;;;;;3.80;1.80;;;20.40;99.90;;;;;;5056868;28;20021;-81
2021/06/24 07:23:38;;;;;;;6.63;2.33;;;20.40;99.90;;;;;;5054085;28;20373;-81
2021/06/24 07:26:04;;;;;;;2.70;1.80;;;20.30;99.90;;;;;;5055859;28;20119;-80
2021/06/24 07:28:30;;;;;;;2.78;2.08;;;20.20;99.90;;;;;;5057397;28;20033;-81
2021/06/24 07:30:56;;;;;;;2.90;1.90;;;20.20;99.90;;;;;;5056877;28;20025;-81
2021/06/24 07:33:22;;;;;;;2.42;1.85;;;20.30;99.90;;;;;;5057339;28;20388;-81
2021/06/24 07:35:48;;;;;;;3.40;2.05;;;20.20;99.90;;;;;;5054987;28;20377;-81
2021/06/24 07:38:13;;;;;;;3.35;2.10;;;20.20;99.90;;;;;;5054978;28;20025;-81
2021/06/24 07:40:40;;;;;;;2.90;1.67;;;20.00;99.90;;;;;;5052948;28;20017;-81
2021/06/24 07:43:06;;;;;;;2.72;1.52;;;20.10;99.90;;;;;;5053802;28;20521;-81
2021/06/24 07:45:33;;;;;;;3.85;1.65;;;20.10;99.90;;;;;;5054096;28;20380;-81
2021/06/24 07:47:59;;;;;;;2.80;1.70;;;20.30;99.90;;;;;;5052983;28;20032;-81
2021/06/24 07:50:25;;;;;;;1.90;1.70;;;20.40;99.90;;;;;;5053877;28;20390;-81
2021/06/24 07:52:50;;;;;;;3.75;1.52;;;20.40;99.90;;;;;;5059153;28;20155;-81
2021/06/24 07:55:16;;;;;;;3.38;1.70;;;20.30;99.90;;;;;;5059430;28;20044;-81
2021/06/24 07:57:43;;;;;;;2.20;2.00;;;20.20;99.90;;;;;;5061691;28;20028;-81
2021/06/24 08:00:10;;;;;;;4.78;2.78;;;20.10;99.90;;;;;;5061120;28;20032;-82
2021/06/24 08:02:36;;;;;;;2.33;1.90;;;20.10;99.90;;;;;;5059627;28;20034;-81
2021/06/24 08:05:02;;;;;;;2.38;1.73;;;20.20;99.90;;;;;;5041873;28;20029;-82
2021/06/24 08:07:28;;;;;;;1.70;1.60;;;20.30;99.90;;;;;;5059883;28;20025;-82
2021/06/24 08:09:55;;;;;;;2.38;1.92;;;20.40;99.90;;;;;;5059202;28;20492;-81
2021/06/24 08:12:21;;;;;;;3.72;1.58;;;20.40;99.90;;;;;;5059796;28;20048;-81
2021/06/24 08:14:47;;;;;;;1.90;1.75;;;20.70;99.90;;;;;;5059694;28;20028;-82
2021/06/24 08:17:12;;;;;;;3.13;1.60;;;20.60;99.90;;;;;;5059661;28;20500;-82
2021/06/24 08:19:38;;;;;;;1.67;1.58;;;21.00;99.90;;;;;;5059233;28;20381;-81
2021/06/24 08:22:04;;;;;;;3.33;1.98;;;21.40;99.90;;;;;;5057728;28;20025;-82
2021/06/24 08:24:30;;;;;;;2.20;1.50;;;21.60;99.90;;;;;;5059526;28;20025;-81
2021/06/24 08:26:56;;;;;;;2.28;1.60;;;21.70;99.90;;;;;;5064068;28;20047;-81
2021/06/24 08:29:22;;;;;;;1.70;1.50;;;21.50;99.90;;;;;;5065873;28;20443;-81
2021/06/24 08:31:48;;;;;;;2.00;1.40;;;21.60;99.90;;;;;;5069053;28;20029;-82
2021/06/24 08:34:13;;;;;;;2.13;1.30;;;21.90;99.90;;;;;;5073936;28;20034;-82
2021/06/24 08:36:39;;;;;;;2.38;1.38;;;22.20;99.90;;;;;;5068775;28;20053;-82
2021/06/24 08:39:05;;;;;;;1.25;1.02;;;21.90;99.90;;;;;;5070807;28;20020;-82
2021/06/24 08:41:31;;;;;;;1.70;1.20;;;22.00;99.90;;;;;;5071416;28;20032;-82
2021/06/24 08:43:57;;;;;;;2.92;1.20;;;21.60;99.90;;;;;;5074719;28;20088;-81
2021/06/24 08:46:26;;;;;;;1.73;1.15;;;22.00;99.90;;;;;;5076293;28;20029;-81
2021/06/24 08:48:54;;;;;;;1.20;1.10;;;22.00;99.90;;;;;;5073262;28;20020;-81
2021/06/24 08:51:19;;;;;;;1.25;1.10;;;22.00;99.90;;;;;;5072924;28;20096;-82
2021/06/24 08:53:48;;;;;;;2.85;1.10;;;22.40;99.90;;;;;;5076501;28;20029;-81
2021/06/24 08:56:15;;;;;;;1.10;0.90;;;22.60;99.90;;;;;;5074192;28;20037;-81
2021/06/24 08:58:41;;;;;;;2.08;1.20;;;22.90;99.90;;;;;;5076179;28;20021;-82
2021/06/24 09:01:07;;;;;;;1.77;1.25;;;22.70;99.90;;;;;;5079048;28;20055;-82
2021/06/24 09:03:33;;;;;;;1.77;1.10;;;22.80;99.90;;;;;;5078909;28;20025;-82
2021/06/24 09:06:01;;;;;;;1.77;1.10;;;23.00;99.90;;;;;;5078785;28;20025;-82
2021/06/24 09:08:53;;;;;;;1.50;1.10;;;22.90;99.90;;;;;;5077001;28;20018;-81
2021/06/24 09:11:24;;;;;;;2.30;1.00;;;23.00;99.90;;;;;;5077394;28;20035;-82
2021/06/24 09:14:11;;;;;;;1.42;1.00;;;23.20;99.90;;;;;;5077475;28;20017;-82
2021/06/24 09:16:40;;;;;;;1.67;1.20;;;22.80;99.90;;;;;;5073893;28;20029;-82
2021/06/24 09:19:26;;;;;;;2.40;1.08;;;22.60;99.90;;;;;;5072385;28;20017;-82
2021/06/24 09:22:12;;;;;;;1.55;1.38;;;22.40;99.90;;;;;;5065354;28;20031;-81
2021/06/24 09:24:43;;;;;;;1.50;1.27;;;22.00;99.90;;;;;;5073212;28;20088;-82
2021/06/24 09:27:18;;;;;;;2.53;1.33;;;21.70;99.90;;;;;;5075009;28;20025;-81
2021/06/24 09:30:10;;;;;;;2.58;1.35;;;21.60;99.90;;;;;;5066819;28;20124;-82
2021/06/24 09:32:39;;;;;;;2.88;1.50;;;21.50;99.90;;;;;;5063343;28;20032;-81
2021/06/24 09:35:23;;;;;;;2.97;1.20;;;21.30;99.90;;;;;;5064887;28;20044;-81
2021/06/24 09:37:59;;;;;;;1.52;1.30;;;21.30;99.90;;;;;;5066144;28;20025;-81
2021/06/24 09:40:54;;;;;;;2.28;1.10;;;21.50;99.90;;;;;;5071862;28;20030;-81
2021/06/24 09:43:35;;;;;;;3.30;1.23;;;21.50;99.90;;;;;;5069171;28;20021;-82
2021/06/24 09:46:03;;;;;;;2.30;1.33;;;21.60;99.90;;;;;;5071765;28;20025;-82
2021/06/24 09:48:37;;;;;;;2.60;1.40;;;21.60;99.90;;;;;;5069271;28;20052;-82
2021/06/24 09:51:07;;;;;;;1.20;1.10;;;21.70;99.90;;;;;;5068351;28;20025;-81
2021/06/24 09:53:33;;;;;;;3.00;1.38;;;21.70;99.90;;;;;;5066162;28;20128;-81
2021/06/24 09:56:14;;;;;;;2.15;1.27;;;21.70;99.90;;;;;;5063177;28;20068;-81
2021/06/24 09:58:47;;;;;;;2.25;1.30;;;21.70;99.90;;;;;;5063926;28;20071;-81
2021/06/24 10:01:32;;;;;;;3.17;1.55;;;21.90;99.90;;;;;;5060587;28;20045;-82
2021/06/24 10:04:00;;;;;;;2.35;1.52;;;21.90;99.90;;;;;;5062927;28;20029;-82
2021/06/24 10:06:26;;;;;;;4.03;1.25;;;21.90;99.90;;;;;;5060605;28;20112;-81
2021/06/24 10:08:55;;;;;;;2.42;1.33;;;22.10;99.90;;;;;;5059578;28;20473;-81
2021/06/24 10:11:22;;;;;;;2.22;1.35;;;22.00;99.90;;;;;;5062572;28;20025;-81
2021/06/24 10:13:49;;;;;;;1.52;1.20;;;21.80;99.90;;;;;;5064116;28;20125;-81
2021/06/24 10:16:18;;;;;;;1.33;1.10;;;21.60;99.90;;;;;;5061441;28;20116;-81
2021/06/24 10:18:46;;;;;;;5.22;1.38;;;21.60;99.90;;;;;;5062908;28;20032;-81
2021/06/24 10:21:14;;;;;;;2.22;1.15;;;21.60;99.90;;;;;;5061215;28;20124;-81
2021/06/24 10:23:46;;;;;;;9.13;1.50;;;21.80;99.90;;;;;;5060787;28;20017;-81
2021/06/24 10:26:14;;;;;;;1.73;1.10;;;21.60;99.90;;;;;;5060455;28;20027;-81
2021/06/24 10:28:40;;;;;;;1.63;1.13;;;21.80;99.90;;;;;;5058619;28;20032;-81
2021/06/24 10:31:06;;;;;;;3.40;1.25;;;21.90;99.90;;;;;;5058403;28;20025;-81
2021/06/24 10:33:55;;;;;;;2.45;0.85;;;22.10;99.90;;;;;;5060783;28;20177;-81
2021/06/24 10:36:21;;;;;;;1.75;0.90;;;22.60;99.90;;;;;;5056583;28;20045;-81
2021/06/24 10:38:51;;;;;;;1.63;1.00;;;23.40;99.90;;;;;;5056908;28;20036;-81
2021/06/24 10:41:17;;;;;;;4.35;0.90;;;24.00;99.90;;;;;;5040520;28;20025;-81
2021/06/24 10:43:45;;;;;;;1.60;1.00;;;23.90;99.90;;;;;;5055349;28;20017;-81
2021/06/24 10:46:17;;;;;;;3.30;0.98;;;23.10;99.90;;;;;;5053629;28;20487;-82
2021/06/24 10:48:43;;;;;;;3.20;0.60;;;23.20;99.90;;;;;;5055195;28;20025;-83
2021/06/24 10:51:10;;;;;;;0.90;0.70;;;22.70;99.90;;;;;;5054766;28;20047;-81
2021/06/24 10:53:47;;;;;;;1.02;0.80;;;23.20;99.90;;;;;;5054441;28;20476;-81
2021/06/24 10:56:30;;;;;;;3.47;1.00;;;22.90;99.90;;;;;;5054638;28;20024;-81
2021/06/24 10:58:58;;;;;;;1.48;0.75;;;22.90;99.90;;;;;;5053132;28;20480;-81
2021/06/24 11:01:43;;;;;;;1.27;1.00;;;22.80;99.90;;;;;;5052925;28;20017;-81
2021/06/24 11:04:30;;;;;;;1.52;0.85;;;23.20;99.90;;;;;;5052748;28;20021;-81
2021/06/24 11:06:58;;;;;;;1.63;0.90;;;24.30;99.90;;;;;;5055639;28;20041;-81
2021/06/24 11:09:24;;;;;;;2.47;0.90;;;23.90;99.90;;;;;;5054444;28;20025;-81
2021/06/24 11:11:50;;;;;;;0.85;0.82;;;23.80;99.90;;;;;;5054972;28;20039;-81
2021/06/24 11:14:54;;;;;;;3.38;0.93;;;23.40;99.90;;;;;;5053831;28;20041;-81
2021/06/24 11:17:46;;;;;;;1.63;0.88;;;24.20;99.90;;;;;;5054468;28;20495;-81
2021/06/24 11:20:16;;;;;;;3.75;0.80;;;23.70;99.90;;;;;;5053272;28;20033;-81
2021/06/24 11:22:51;;;;;;;1.83;0.75;;;23.20;99.90;;;;;;5052817;28;20472;-81
2021/06/24 11:25:17;;;;;;;1.02;0.70;;;22.70;99.90;;;;;;5054076;28;20016;-81
2021/06/24 11:27:43;;;;;;;0.80;0.40;;;22.70;99.90;;;;;;5052356;28;20412;-81
2021/06/24 11:30:11;;;;;;;2.20;0.68;;;21.90;99.90;;;;;;5054316;28;20035;-81
2021/06/24 11:32:39;;;;;;;1.23;0.50;;;21.80;99.90;;;;;;5053113;28;20507;-82
2021/06/24 11:35:31;;;;;;;1.35;0.55;;;21.70;99.90;;;;;;5053205;28;20068;-81
2021/06/24 11:38:02;;;;;;;1.98;0.90;;;21.40;99.90;;;;;;5055088;28;20053;-81
2021/06/24 11:40:28;;;;;;;0.93;0.70;;;21.50;99.90;;;;;;5052458;28;20108;-81
2021/06/24 11:42:57;;;;;;;1.30;0.77;;;23.10;99.90;;;;;;5052566;28;20051;-81
2021/06/24 11:45:25;;;;;;;1.38;0.57;;;23.80;99.90;;;;;;5055485;28;20021;-81
2021/06/24 11:47:56;;;;;;;1.17;0.80;;;23.60;99.90;;;;;;5053145;28;20024;-81
2021/06/24 12:04:04;;;;;;;1.38;0.50;;;24.30;99.90;;;;;;5055021;28;20435;-82
2021/06/24 12:07:15;;;;;;;1.05;0.40;;;25.00;99.90;;;;;;5056110;28;20029;-81
2021/06/24 12:09:52;;;;;;;2.58;0.50;;;25.60;99.90;;;;;;5054680;28;20562;-82
2021/06/24 12:12:21;;;;;;;0.60;0.50;;;26.00;99.90;;;;;;5053366;28;20032;-82
2021/06/24 12:14:48;;;;;;;1.45;0.50;;;27.00;99.90;;;;;;5052979;28;20031;-82
2021/06/24 12:17:16;;;;;;;0.80;0.70;;;26.90;99.90;;;;;;5053390;28;20435;-82
2021/06/24 12:19:50;;;;;;;1.25;0.60;;;26.60;99.90;;;;;;5055836;28;20075;-81
2021/06/24 12:22:18;;;;;;;0.40;0.40;;;25.40;99.90;;;;;;5055583;28;20075;-82
2021/06/24 12:24:45;;;;;;;0.65;0.50;;;25.50;99.90;;;;;;5057297;28;20025;-82
2021/06/24 12:27:18;;;;;;;1.73;0.50;;;26.10;99.90;;;;;;5055851;28;20028;-81
2021/06/24 12:29:45;;;;;;;1.25;0.60;;;25.80;99.90;;;;;;5054678;28;20120;-81
2021/06/24 12:32:11;;;;;;;0.95;0.50;;;25.30;99.90;;;;;;5053331;28;20079;-82
2021/06/24 12:34:37;;;;;;;0.73;0.60;;;25.50;99.90;;;;;;5051569;28;20029;-82
2021/06/24 12:37:02;;;;;;;2.20;0.50;;;25.70;99.90;;;;;;5034766;28;20468;-82
2021/06/24 12:39:28;;;;;;;1.15;0.50;;;25.50;99.90;;;;;;5037349;28;20030;-82
2021/06/24 12:41:55;;;;;;;0.60;0.55;;;24.70;99.90;;;;;;5020369;28;20079;-81
2021/06/24 12:44:21;;;;;;;3.95;0.75;;;24.20;99.90;;;;;;5019326;28;20125;-81
2021/06/24 12:46:47;;;;;;;1.30;0.50;;;23.60;99.90;;;;;;5038020;28;20033;-82
2021/06/24 12:49:17;;;;;;;2.92;0.65;;;23.30;99.90;;;;;;5020887;28;20116;-82
2021/06/24 12:51:44;;;;;;;0.68;0.60;;;22.70;99.90;;;;;;5018722;28;20075;-81
2021/06/24 12:54:18;;;;;;;1.88;0.60;;;22.50;99.90;;;;;;5036157;28;20025;-81
2021/06/24 12:56:47;;;;;;;4.00;0.70;;;22.40;99.90;;;;;;5036403;28;20028;-82
2021/06/24 12:59:20;;;;;;;1.60;0.70;;;22.20;99.90;;;;;;5036110;28;20477;-82
2021/06/24 13:01:47;;;;;;;1.10;0.60;;;22.00;99.90;;;;;;5018351;28;20112;-81
2021/06/24 13:04:20;;;;;;;2.97;0.70;;;21.70;99.90;;;;;;5018270;28;20025;-81